Time;durP1;ratioP1;P1;durP2;ratioP2;P2;SDS_P1;SDS_P2;PMS_P1;PMS_P2;Temp;Humidity;BMP_temperature;BMP_pressure;BME280_temperature;BME280_humidity;BME280_pressure;Samples;Min_cycle;Max_cycle;Signal;HPM_P1;HPM_P2
2022/01/27 00:00:48;;;;;;;8.05;4.25;;;;;;;;;;4993085;28;20022;-85
2022/01/27 00:06:26;;;;;;;10.20;4.13;;;;;;;;;;4981271;28;20140;-85
2022/01/27 00:08:45;;;;;;;7.95;3.80;;;;;;;;;;4984411;28;20026;-85
2022/01/27 00:11:13;;;;;;;5.60;3.08;;;;;;;;;;5004951;28;20045;-85
2022/01/27 00:13:45;;;;;;;5.85;3.15;;;;;;;;;;4992425;28;20106;-84
2022/01/27 00:16:14;;;;;;;6.43;3.63;;;;;;;;;;4994562;28;20027;-83
2022/01/27 00:18:41;;;;;;;9.40;4.65;;;;;;;;;;4992147;28;20059;-85
2022/01/27 00:21:07;;;;;;;11.57;4.50;;;;;;;;;;4992435;28;20471;-85
2022/01/27 00:23:34;;;;;;;6.80;3.33;;;;;;;;;;4995584;28;20034;-84
2022/01/27 00:26:00;;;;;;;9.57;3.83;;;;;;;;;;4995800;28;20095;-84
2022/01/27 00:28:27;;;;;;;7.32;3.30;;;;;;;;;;5015445;28;20030;-84
2022/01/27 00:30:53;;;;;;;5.82;3.08;;;;;;;;;;4978831;28;20042;-85
2022/01/27 00:33:19;;;;;;;8.25;3.97;;;;;;;;;;5005777;28;20383;-84
2022/01/27 00:35:45;;;;;;;8.73;3.50;;;;;;;;;;4993811;28;20049;-85
2022/01/27 00:38:11;;;;;;;6.45;3.22;;;;;;;;;;4993821;28;20030;-85
2022/01/27 00:40:37;;;;;;;5.07;2.60;;;;;;;;;;5022910;28;20030;-84
2022/01/27 00:43:03;;;;;;;3.00;1.70;;;;;;;;;;4993420;28;20037;-84
2022/01/27 00:45:31;;;;;;;5.75;3.42;;;;;;;;;;4991518;28;20343;-84
2022/01/27 00:48:01;;;;;;;7.63;4.10;;;;;;;;;;4986204;28;20451;-84
2022/01/27 00:50:27;;;;;;;6.07;3.50;;;;;;;;;;4995853;28;20038;-85
2022/01/27 00:52:56;;;;;;;7.43;4.00;;;;;;;;;;4995993;28;20101;-83
2022/01/27 00:55:24;;;;;;;5.70;2.72;;;;;;;;;;4993461;28;20085;-84
2022/01/27 01:00:20;;;;;;;4.97;2.65;;;;;;;;;;4995758;28;20329;-83
2022/01/27 01:03:02;;;;;;;7.10;3.45;;;;;;;;;;4988706;28;20034;-85
2022/01/27 01:05:49;;;;;;;6.57;3.72;;;;;;;;;;4982476;28;20037;-84
2022/01/27 01:14:20;;;;;;;6.15;3.00;;;;;;;;;;4992390;28;20050;-84
2022/01/27 01:16:41;;;;;;;8.02;3.67;;;;;;;;;;4992886;28;20030;-84
2022/01/27 01:19:20;;;;;;;4.20;2.35;;;;;;;;;;4977002;28;20042;-85
2022/01/27 01:32:53;;;;;;;7.38;3.95;;;;;;;;;;4980849;28;20034;-84
2022/01/27 01:35:28;;;;;;;11.10;4.15;;;;;;;;;;5025013;28;20035;-85
2022/01/27 01:37:55;;;;;;;6.00;2.42;;;;;;;;;;5023662;28;20038;-84
2022/01/27 01:40:21;;;;;;;6.78;3.08;;;;;;;;;;5019632;28;20026;-84
2022/01/27 01:42:47;;;;;;;7.43;3.60;;;;;;;;;;4993109;28;20076;-85
2022/01/27 01:45:17;;;;;;;7.47;2.95;;;;;;;;;;4995276;28;20054;-85
2022/01/27 01:47:43;;;;;;;6.55;3.28;;;;;;;;;;4992915;28;20490;-84
2022/01/27 01:50:10;;;;;;;5.72;3.15;;;;;;;;;;4993217;28;20130;-85
2022/01/27 01:52:36;;;;;;;6.75;3.40;;;;;;;;;;4994861;28;20072;-83
2022/01/27 01:55:03;;;;;;;7.03;3.20;;;;;;;;;;4991198;28;20034;-82
2022/01/27 01:57:29;;;;;;;7.03;2.97;;;;;;;;;;4993720;28;20030;-85
2022/01/27 01:59:55;;;;;;;7.05;3.33;;;;;;;;;;4993862;28;20030;-85
2022/01/27 02:02:21;;;;;;;6.05;3.17;;;;;;;;;;4991204;28;20161;-85
2022/01/27 02:04:47;;;;;;;4.68;2.50;;;;;;;;;;4994708;28;20022;-84
2022/01/27 02:07:48;;;;;;;5.35;2.65;;;;;;;;;;4992227;28;20041;-84
2022/01/27 02:18:49;;;;;;;4.82;2.65;;;;;;;;;;4993294;28;20371;-85
2022/01/27 02:21:15;;;;;;;7.38;3.03;;;;;;;;;;4984790;28;20065;-85
2022/01/27 02:23:41;;;;;;;6.75;3.33;;;;;;;;;;4991209;28;20034;-84
2022/01/27 02:26:06;;;;;;;6.40;3.33;;;;;;;;;;4992271;28;20037;-83
2022/01/27 02:28:32;;;;;;;6.07;3.05;;;;;;;;;;4993336;28;20026;-84
2022/01/27 02:30:58;;;;;;;6.63;2.65;;;;;;;;;;4990576;28;20464;-84
2022/01/27 02:33:31;;;;;;;5.90;2.72;;;;;;;;;;4990745;28;20077;-84
2022/01/27 02:35:57;;;;;;;7.63;3.05;;;;;;;;;;4993044;28;20034;-84
2022/01/27 02:38:23;;;;;;;5.50;2.75;;;;;;;;;;5007598;28;20029;-85
2022/01/27 02:40:49;;;;;;;6.10;3.10;;;;;;;;;;5021573;28;20045;-84
2022/01/27 02:43:16;;;;;;;6.28;3.15;;;;;;;;;;5011896;28;20022;-84
2022/01/27 02:45:49;;;;;;;6.28;3.58;;;;;;;;;;4990786;28;20034;-83
2022/01/27 02:48:15;;;;;;;5.97;2.58;;;;;;;;;;4991124;28;20028;-85
2022/01/27 02:50:43;;;;;;;4.03;2.30;;;;;;;;;;4991781;28;20073;-85
2022/01/27 02:53:09;;;;;;;3.03;1.97;;;;;;;;;;5023082;28;20093;-85
2022/01/27 02:55:35;;;;;;;4.70;2.00;;;;;;;;;;4989276;28;20026;-85
2022/01/27 02:58:02;;;;;;;4.78;2.65;;;;;;;;;;5012550;28;20419;-84
2022/01/27 03:00:28;;;;;;;4.90;2.15;;;;;;;;;;4980377;28;20384;-85
2022/01/27 03:02:54;;;;;;;4.68;2.00;;;;;;;;;;4990629;28;20492;-84
2022/01/27 03:05:20;;;;;;;4.30;2.10;;;;;;;;;;4990472;28;20111;-85
2022/01/27 03:07:48;;;;;;;5.22;1.90;;;;;;;;;;5021237;28;20038;-84
2022/01/27 03:10:15;;;;;;;2.05;1.25;;;;;;;;;;4991384;28;20035;-84
2022/01/27 03:12:41;;;;;;;5.60;2.63;;;;;;;;;;4996939;28;20053;-83
2022/01/27 03:15:09;;;;;;;5.40;2.78;;;;;;;;;;4992779;28;20030;-84
2022/01/27 03:17:36;;;;;;;6.88;2.78;;;;;;;;;;4992216;28;20031;-83
2022/01/27 03:20:02;;;;;;;5.80;2.97;;;;;;;;;;4994303;28;20034;-86
2022/01/27 03:22:28;;;;;;;3.88;2.45;;;;;;;;;;4994281;28;20038;-85
2022/01/27 03:24:54;;;;;;;4.40;2.38;;;;;;;;;;4992790;28;20045;-83
2022/01/27 03:27:23;;;;;;;5.35;2.42;;;;;;;;;;4992393;28;20026;-84
2022/01/27 03:29:49;;;;;;;4.32;2.00;;;;;;;;;;5009344;28;20044;-84
2022/01/27 03:32:16;;;;;;;6.57;2.30;;;;;;;;;;4992775;28;20034;-84
2022/01/27 03:34:42;;;;;;;4.95;2.10;;;;;;;;;;5020663;28;20058;-83
2022/01/27 03:37:08;;;;;;;4.40;2.05;;;;;;;;;;4990722;28;20113;-83
2022/01/27 03:39:37;;;;;;;4.00;1.60;;;;;;;;;;4991217;28;20038;-84
2022/01/27 03:42:04;;;;;;;3.17;1.52;;;;;;;;;;4992300;28;20479;-84
2022/01/27 03:44:30;;;;;;;1.92;1.13;;;;;;;;;;4989678;28;20030;-85
2022/01/27 03:46:56;;;;;;;2.88;1.60;;;;;;;;;;4990962;28;20121;-84
2022/01/27 03:49:22;;;;;;;4.72;1.80;;;;;;;;;;5011063;28;20510;-83
2022/01/27 03:51:48;;;;;;;5.45;2.10;;;;;;;;;;4992399;28;20042;-84
2022/01/27 03:54:15;;;;;;;3.40;1.92;;;;;;;;;;4995990;28;20045;-84
2022/01/27 03:56:41;;;;;;;4.47;2.00;;;;;;;;;;4993617;28;20065;-85
2022/01/27 03:59:07;;;;;;;3.45;1.73;;;;;;;;;;4995133;28;20061;-85
2022/01/27 04:01:33;;;;;;;3.20;1.67;;;;;;;;;;5027119;28;20463;-84
2022/01/27 04:04:00;;;;;;;2.53;0.95;;;;;;;;;;4996285;28;20423;-85
2022/01/27 04:06:39;;;;;;;3.40;1.83;;;;;;;;;;5017977;28;20467;-85
2022/01/27 04:09:06;;;;;;;3.95;2.40;;;;;;;;;;4992777;28;20054;-84
2022/01/27 04:11:32;;;;;;;2.78;1.55;;;;;;;;;;4993673;28;20049;-84
2022/01/27 04:13:58;;;;;;;3.58;1.50;;;;;;;;;;4994997;28;20148;-83
2022/01/27 04:16:24;;;;;;;2.45;1.38;;;;;;;;;;4995044;28;20034;-84
2022/01/27 04:18:51;;;;;;;2.90;1.25;;;;;;;;;;4988765;28;20034;-85
2022/01/27 04:21:17;;;;;;;4.30;2.00;;;;;;;;;;4987374;28;20027;-83
2022/01/27 04:23:43;;;;;;;3.78;1.95;;;;;;;;;;4987807;28;20030;-83
2022/01/27 04:26:11;;;;;;;3.90;1.80;;;;;;;;;;4989962;28;20139;-84
2022/01/27 04:28:38;;;;;;;4.50;2.15;;;;;;;;;;5008593;28;20034;-83
2022/01/27 04:31:07;;;;;;;2.83;1.67;;;;;;;;;;4986811;28;20162;-86
2022/01/27 04:33:35;;;;;;;2.95;1.42;;;;;;;;;;5002385;28;20076;-84
2022/01/27 04:36:07;;;;;;;2.97;1.30;;;;;;;;;;4987096;28;20125;-85
2022/01/27 04:38:47;;;;;;;3.22;1.38;;;;;;;;;;4996084;28;20018;-85
2022/01/27 04:41:20;;;;;;;5.88;1.83;;;;;;;;;;4993081;28;20026;-85
2022/01/27 04:43:57;;;;;;;2.72;1.73;;;;;;;;;;5024844;28;20033;-85
2022/01/27 04:48:57;;;;;;;2.67;1.65;;;;;;;;;;4995582;28;20045;-85
2022/01/27 04:51:24;;;;;;;3.10;1.63;;;;;;;;;;4982733;28;20043;-84
2022/01/27 04:56:17;;;;;;;2.20;1.38;;;;;;;;;;4996672;28;20458;-84
2022/01/27 04:58:46;;;;;;;4.30;1.60;;;;;;;;;;4996986;28;20357;-85
2022/01/27 05:01:13;;;;;;;3.60;1.70;;;;;;;;;;5020107;28;20365;-85
2022/01/27 05:03:45;;;;;;;4.03;1.90;;;;;;;;;;4986768;28;20030;-84
2022/01/27 05:06:11;;;;;;;4.55;2.20;;;;;;;;;;4994737;28;20376;-85
2022/01/27 05:08:37;;;;;;;2.88;1.23;;;;;;;;;;4993120;28;20026;-85
2022/01/27 05:11:13;;;;;;;4.18;1.90;;;;;;;;;;4993833;28;20034;-87
2022/01/27 05:13:52;;;;;;;4.18;1.73;;;;;;;;;;5027081;28;20037;-87
2022/01/27 05:16:18;;;;;;;4.50;2.30;;;;;;;;;;4988775;28;20022;-84
2022/01/27 05:18:44;;;;;;;3.97;2.00;;;;;;;;;;4987078;28;20030;-84
2022/01/27 05:21:10;;;;;;;3.38;1.70;;;;;;;;;;4990731;28;20033;-85
2022/01/27 05:23:36;;;;;;;4.78;1.70;;;;;;;;;;4991836;28;20023;-84
2022/01/27 05:26:02;;;;;;;2.10;1.40;;;;;;;;;;4993967;28;20038;-87
2022/01/27 05:28:28;;;;;;;2.80;1.20;;;;;;;;;;4993820;28;20026;-86
2022/01/27 05:30:54;;;;;;;2.30;1.15;;;;;;;;;;4994841;28;20130;-86
2022/01/27 05:33:20;;;;;;;1.98;0.70;;;;;;;;;;4995856;28;20033;-85
2022/01/27 05:35:46;;;;;;;1.20;0.85;;;;;;;;;;4990975;28;20034;-86
2022/01/27 05:38:13;;;;;;;1.75;1.20;;;;;;;;;;4995682;28;20030;-87
2022/01/27 05:40:39;;;;;;;3.85;1.73;;;;;;;;;;4996292;28;20066;-85
2022/01/27 05:43:05;;;;;;;3.03;1.60;;;;;;;;;;5010164;28;20432;-86
2022/01/27 05:45:31;;;;;;;3.00;1.80;;;;;;;;;;4995776;28;20085;-85
2022/01/27 05:47:57;;;;;;;4.05;1.55;;;;;;;;;;4991851;28;20041;-86
2022/01/27 05:50:23;;;;;;;2.92;1.50;;;;;;;;;;4994721;28;20039;-87
2022/01/27 05:52:49;;;;;;;2.22;1.55;;;;;;;;;;5011035;28;20022;-86
2022/01/27 05:55:15;;;;;;;1.73;1.10;;;;;;;;;;5010745;28;20475;-86
2022/01/27 05:57:41;;;;;;;8.55;3.83;;;;;;;;;;4995893;28;20034;-86
2022/01/27 06:00:10;;;;;;;6.25;2.95;;;;;;;;;;4992746;28;20142;-87
2022/01/27 06:02:36;;;;;;;7.43;3.40;;;;;;;;;;4996178;28;20026;-87
2022/01/27 06:05:02;;;;;;;7.15;2.90;;;;;;;;;;4999078;28;20479;-88
2022/01/27 06:07:29;;;;;;;4.68;2.22;;;;;;;;;;5020831;28;20030;-86
2022/01/27 06:09:55;;;;;;;4.55;2.15;;;;;;;;;;4993215;28;20108;-86
2022/01/27 06:12:21;;;;;;;5.05;2.25;;;;;;;;;;4995161;28;20121;-86
2022/01/27 06:14:47;;;;;;;4.53;2.22;;;;;;;;;;4992182;28;20106;-87
2022/01/27 06:17:13;;;;;;;4.07;2.08;;;;;;;;;;4992220;28;20499;-87
2022/01/27 06:19:44;;;;;;;4.47;2.10;;;;;;;;;;5016022;28;20037;-86
2022/01/27 06:22:11;;;;;;;3.47;1.90;;;;;;;;;;4993774;28;20099;-87
2022/01/27 06:24:41;;;;;;;3.85;1.77;;;;;;;;;;4988541;28;20019;-85
2022/01/27 06:27:07;;;;;;;3.20;1.48;;;;;;;;;;4984213;28;20149;-87
2022/01/27 06:29:33;;;;;;;2.42;1.17;;;;;;;;;;4991075;28;20038;-89
2022/01/27 06:31:59;;;;;;;2.90;1.38;;;;;;;;;;4993760;28;20057;-85
2022/01/27 06:34:25;;;;;;;5.82;2.97;;;;;;;;;;5012006;28;20023;-86
2022/01/27 06:36:51;;;;;;;6.20;3.25;;;;;;;;;;4991623;28;20170;-85
2022/01/27 06:39:17;;;;;;;6.80;3.30;;;;;;;;;;4983174;28;20034;-86
2022/01/27 06:41:44;;;;;;;6.47;2.83;;;;;;;;;;4996328;28;20038;-86
2022/01/27 06:44:10;;;;;;;5.07;2.33;;;;;;;;;;5024423;28;20026;-86
2022/01/27 06:46:36;;;;;;;4.22;2.15;;;;;;;;;;5024520;28;20030;-85
2022/01/27 06:49:04;;;;;;;4.03;1.40;;;;;;;;;;4988875;28;20121;-86
2022/01/27 06:51:31;;;;;;;9.25;3.10;;;;;;;;;;4989235;28;20066;-86
2022/01/27 06:53:58;;;;;;;5.22;2.35;;;;;;;;;;4993434;28;20070;-86
2022/01/27 06:56:25;;;;;;;6.38;2.80;;;;;;;;;;4992460;28;20057;-85
2022/01/27 06:58:51;;;;;;;7.53;2.67;;;;;;;;;;4992773;28;20125;-86
2022/01/27 07:01:17;;;;;;;6.10;2.88;;;;;;;;;;4990025;28;20102;-86
2022/01/27 07:03:43;;;;;;;4.45;2.17;;;;;;;;;;5009465;28;20030;-87
2022/01/27 07:06:09;;;;;;;4.72;1.70;;;;;;;;;;4984635;28;20046;-87
2022/01/27 07:08:35;;;;;;;3.28;1.50;;;;;;;;;;4993669;28;20061;-86
2022/01/27 07:11:01;;;;;;;3.60;2.00;;;;;;;;;;4993582;28;20081;-86
2022/01/27 07:13:27;;;;;;;5.20;2.30;;;;;;;;;;5006613;28;20400;-86
2022/01/27 07:15:54;;;;;;;4.88;1.85;;;;;;;;;;4981820;28;20118;-87
2022/01/27 07:18:20;;;;;;;4.20;1.80;;;;;;;;;;4989816;28;20080;-86
2022/01/27 07:20:46;;;;;;;6.15;1.83;;;;;;;;;;4990707;28;20475;-86
2022/01/27 07:23:12;;;;;;;4.45;1.95;;;;;;;;;;4993059;28;20062;-87
2022/01/27 07:25:38;;;;;;;3.53;1.45;;;;;;;;;;5020629;28;20479;-86
2022/01/27 07:28:04;;;;;;;2.38;1.35;;;;;;;;;;4992364;28;20027;-86
2022/01/27 07:30:30;;;;;;;3.85;1.30;;;;;;;;;;4991836;28;20042;-86
2022/01/27 07:32:56;;;;;;;2.88;1.45;;;;;;;;;;4990734;28;20233;-86
2022/01/27 07:35:22;;;;;;;2.67;1.30;;;;;;;;;;4988865;28;20023;-86
2022/01/27 07:37:48;;;;;;;2.58;1.20;;;;;;;;;;5018231;28;20038;-87
2022/01/27 07:40:14;;;;;;;2.50;1.30;;;;;;;;;;5010443;28;20494;-86
2022/01/27 07:42:40;;;;;;;1.48;1.00;;;;;;;;;;4990203;28;20066;-87
2022/01/27 07:45:07;;;;;;;1.60;1.10;;;;;;;;;;4992591;28;20038;-87
2022/01/27 07:47:34;;;;;;;4.43;1.35;;;;;;;;;;4991135;28;20106;-87
2022/01/27 07:49:59;;;;;;;2.20;1.10;;;;;;;;;;5016730;28;20039;-86
2022/01/27 07:52:25;;;;;;;4.80;1.73;;;;;;;;;;5023057;28;20026;-86
2022/01/27 07:54:51;;;;;;;5.28;3.05;;;;;;;;;;4991933;28;20023;-86
2022/01/27 07:57:17;;;;;;;3.55;2.38;;;;;;;;;;4993133;28;20481;-86
2022/01/27 07:59:44;;;;;;;6.75;3.47;;;;;;;;;;5007825;28;20018;-86
2022/01/27 08:02:10;;;;;;;6.65;3.40;;;;;;;;;;4990892;28;20030;-86
2022/01/27 08:04:36;;;;;;;7.50;3.33;;;;;;;;;;4989347;28;20189;-86
2022/01/27 08:07:02;;;;;;;7.20;3.05;;;;;;;;;;4986186;28;20025;-87
2022/01/27 08:09:29;;;;;;;6.22;2.70;;;;;;;;;;4993070;28;20495;-85
2022/01/27 08:11:55;;;;;;;5.65;2.45;;;;;;;;;;5009185;28;20097;-86
2022/01/27 08:14:21;;;;;;;4.22;2.30;;;;;;;;;;5008476;28;20497;-86
2022/01/27 08:16:47;;;;;;;2.42;1.55;;;;;;;;;;4993534;28;20038;-84
2022/01/27 08:19:13;;;;;;;3.95;1.38;;;;;;;;;;4973771;28;20465;-86
2022/01/27 08:21:39;;;;;;;1.80;0.95;;;;;;;;;;4985941;28;20430;-85
2022/01/27 08:24:05;;;;;;;2.42;1.55;;;;;;;;;;4984503;28;20062;-86
2022/01/27 08:26:37;;;;;;;4.63;2.40;;;;;;;;;;4991600;28;20066;-86
2022/01/27 08:29:18;;;;;;;4.93;2.70;;;;;;;;;;4991506;28;20030;-85
2022/01/27 08:31:57;;;;;;;4.68;2.60;;;;;;;;;;5008626;28;20043;-86
2022/01/27 08:34:33;;;;;;;5.05;3.00;;;;;;;;;;5022886;28;20038;-85
2022/01/27 08:37:00;;;;;;;5.88;3.50;;;;;;;;;;4993951;28;20034;-85
2022/01/27 08:39:27;;;;;;;5.90;2.90;;;;;;;;;;4994753;28;20033;-85
2022/01/27 08:41:53;;;;;;;6.22;3.17;;;;;;;;;;4995970;28;20062;-86
2022/01/27 08:44:19;;;;;;;6.20;2.92;;;;;;;;;;4995762;28;20046;-86
2022/01/27 08:46:45;;;;;;;4.70;2.78;;;;;;;;;;5012496;28;20018;-85
2022/01/27 08:49:14;;;;;;;8.68;2.80;;;;;;;;;;4995632;28;20487;-86
2022/01/27 08:51:40;;;;;;;5.97;3.13;;;;;;;;;;5019336;28;20045;-86
2022/01/27 08:54:06;;;;;;;5.95;2.70;;;;;;;;;;4994729;28;20105;-85
2022/01/27 08:56:32;;;;;;;8.43;3.00;;;;;;;;;;4991656;28;20073;-86
2022/01/27 08:58:58;;;;;;;4.18;2.45;;;;;;;;;;4995017;28;20034;-86
2022/01/27 09:01:26;;;;;;;4.10;2.28;;;;;;;;;;4989627;28;20025;-86
2022/01/27 09:03:53;;;;;;;4.15;2.55;;;;;;;;;;4979740;28;20071;-86
2022/01/27 09:06:19;;;;;;;5.72;3.17;;;;;;;;;;4996396;28;20433;-85
2022/01/27 09:08:45;;;;;;;5.57;2.92;;;;;;;;;;4995123;28;20084;-85
2022/01/27 09:11:11;;;;;;;5.63;3.10;;;;;;;;;;5023907;28;20043;-86
2022/01/27 09:13:38;;;;;;;4.72;2.65;;;;;;;;;;5023045;28;20035;-86
2022/01/27 09:16:04;;;;;;;6.75;3.20;;;;;;;;;;4995399;28;20034;-86
2022/01/27 09:18:32;;;;;;;5.75;2.95;;;;;;;;;;4995469;28;20410;-86
2022/01/27 09:21:01;;;;;;;5.00;3.00;;;;;;;;;;4993666;28;20034;-86
2022/01/27 09:23:27;;;;;;;4.30;2.15;;;;;;;;;;4994176;28;20122;-86
2022/01/27 09:26:00;;;;;;;5.25;2.83;;;;;;;;;;5011268;28;20029;-85
2022/01/27 09:28:26;;;;;;;5.43;2.95;;;;;;;;;;4996658;28;20035;-86
2022/01/27 09:30:52;;;;;;;5.63;3.30;;;;;;;;;;5018159;28;20042;-85
2022/01/27 09:33:18;;;;;;;7.07;3.53;;;;;;;;;;4990303;28;20054;-86
2022/01/27 09:35:45;;;;;;;7.28;3.85;;;;;;;;;;4988261;28;20652;-86
2022/01/27 09:38:11;;;;;;;6.65;3.88;;;;;;;;;;4994772;28;20022;-86
2022/01/27 09:40:37;;;;;;;6.15;3.90;;;;;;;;;;5010556;28;20120;-86
2022/01/27 09:43:04;;;;;;;7.13;3.60;;;;;;;;;;4995780;28;20030;-86
2022/01/27 09:45:31;;;;;;;6.45;3.38;;;;;;;;;;4993647;28;20041;-87
2022/01/27 09:48:02;;;;;;;7.57;4.47;;;;;;;;;;4993789;28;20077;-86
2022/01/27 09:51:00;;;;;;;7.88;4.70;;;;;;;;;;4995173;28;20049;-86
2022/01/27 09:53:27;;;;;;;6.57;4.07;;;;;;;;;;5012339;28;20068;-86
2022/01/27 09:55:56;;;;;;;5.95;3.30;;;;;;;;;;5013231;28;20026;-86
2022/01/27 09:58:22;;;;;;;4.90;2.63;;;;;;;;;;4992383;28;20050;-87
2022/01/27 10:00:48;;;;;;;10.18;4.18;;;;;;;;;;5009563;28;20030;-87
2022/01/27 10:03:14;;;;;;;6.85;3.60;;;;;;;;;;4992451;28;20121;-88
2022/01/27 10:05:41;;;;;;;6.63;3.75;;;;;;;;;;4996685;28;20117;-87
2022/01/27 10:08:10;;;;;;;6.20;3.75;;;;;;;;;;4992075;28;20057;-87
2022/01/27 10:10:38;;;;;;;7.45;4.05;;;;;;;;;;5021385;28;20530;-88
2022/01/27 10:13:07;;;;;;;7.82;4.30;;;;;;;;;;4994928;28;20506;-87
2022/01/27 10:15:36;;;;;;;6.20;4.00;;;;;;;;;;4986299;28;20058;-88
2022/01/27 10:18:04;;;;;;;8.57;3.88;;;;;;;;;;4984767;28;20038;-87
2022/01/27 10:20:30;;;;;;;7.68;3.97;;;;;;;;;;5002060;28;20023;-88
2022/01/27 10:23:12;;;;;;;10.32;3.60;;;;;;;;;;4994884;28;20113;-87
2022/01/27 10:25:49;;;;;;;6.20;3.25;;;;;;;;;;5007939;28;20480;-85
2022/01/27 10:28:30;;;;;;;6.57;2.85;;;;;;;;;;4992218;28;20038;-88
2022/01/27 10:31:00;;;;;;;5.07;2.30;;;;;;;;;;4992844;28;20030;-88
2022/01/27 10:33:26;;;;;;;4.80;2.90;;;;;;;;;;5014287;28;20501;-86
2022/01/27 10:35:52;;;;;;;4.60;2.70;;;;;;;;;;4986348;28;20086;-86
2022/01/27 10:38:18;;;;;;;4.40;2.50;;;;;;;;;;4992458;28;20038;-86
2022/01/27 10:40:49;;;;;;;3.55;1.60;;;;;;;;;;4990146;28;20059;-87
2022/01/27 10:43:23;;;;;;;6.88;3.00;;;;;;;;;;5019253;28;20030;-86
2022/01/27 10:46:11;;;;;;;5.95;2.42;;;;;;;;;;4992489;28;20027;-86
2022/01/27 10:48:37;;;;;;;;;;;;;;;;;;4991713;28;20022;-87
2022/01/27 10:51:09;;;;;;;3.33;1.88;;;;;;;;;;5008383;28;19973;-86
2022/01/27 10:54:03;;;;;;;7.95;1.38;;;;;;;;;;4985987;28;20427;-86
2022/01/27 10:56:30;;;;;;;5.47;1.83;;;;;;;;;;4993080;28;20483;-86
2022/01/27 10:58:57;;;;;;;6.20;1.75;;;;;;;;;;4996164;28;20514;-86
2022/01/27 11:01:28;;;;;;;3.42;2.08;;;;;;;;;;4993766;28;20168;-86
2022/01/27 11:03:55;;;;;;;5.03;2.53;;;;;;;;;;4989589;28;20022;-86
2022/01/27 11:06:24;;;;;;;3.63;2.28;;;;;;;;;;4992261;28;20406;-86
2022/01/27 11:08:54;;;;;;;8.75;4.00;;;;;;;;;;5005425;28;20356;-85
2022/01/27 11:11:21;;;;;;;8.75;3.60;;;;;;;;;;4990719;28;20023;-86
2022/01/27 11:13:47;;;;;;;6.53;3.23;;;;;;;;;;5022606;28;20031;-86
2022/01/27 11:16:17;;;;;;;6.47;2.92;;;;;;;;;;4991023;28;20284;-87
2022/01/27 11:18:45;;;;;;;6.43;3.00;;;;;;;;;;4989340;28;20026;-85
2022/01/27 11:21:24;;;;;;;6.22;3.05;;;;;;;;;;4988684;28;20035;-86
2022/01/27 11:24:06;;;;;;;10.32;4.78;;;;;;;;;;4981241;28;20018;-85
2022/01/27 11:26:34;;;;;;;10.73;4.95;;;;;;;;;;5007070;28;20038;-88
2022/01/27 11:29:00;;;;;;;11.18;6.43;;;;;;;;;;5021734;28;20553;-87
2022/01/27 11:31:34;;;;;;;15.15;8.10;;;;;;;;;;5005847;28;20034;-86
2022/01/27 11:34:04;;;;;;;16.90;8.32;;;;;;;;;;5005920;28;20031;-87
2022/01/27 11:36:30;;;;;;;18.27;9.52;;;;;;;;;;5012007;28;20037;-86
2022/01/27 11:38:58;;;;;;;19.38;10.30;;;;;;;;;;4991530;28;20026;-87
2022/01/27 11:41:45;;;;;;;17.40;9.18;;;;;;;;;;4993883;28;20026;-86
2022/01/27 11:44:20;;;;;;;17.38;9.00;;;;;;;;;;5009221;28;20046;-86
2022/01/27 11:47:05;;;;;;;20.50;9.73;;;;;;;;;;4994160;28;20102;-86
2022/01/27 11:49:58;;;;;;;16.40;8.85;;;;;;;;;;5009366;28;20034;-87
2022/01/27 11:52:27;;;;;;;18.05;9.40;;;;;;;;;;4993955;28;20038;-87
2022/01/27 11:54:55;;;;;;;17.73;8.55;;;;;;;;;;4989340;28;20081;-87
2022/01/27 11:57:40;;;;;;;18.38;7.75;;;;;;;;;;5000921;28;20375;-86
2022/01/27 12:00:11;;;;;;;13.85;7.32;;;;;;;;;;4991916;28;20045;-87
2022/01/27 12:02:55;;;;;;;15.65;7.82;;;;;;;;;;4990863;28;20037;-86
2022/01/27 12:05:21;;;;;;;13.93;6.90;;;;;;;;;;4988681;28;20034;-86
2022/01/27 12:08:06;;;;;;;15.05;8.40;;;;;;;;;;5010841;28;20387;-86
2022/01/27 12:10:41;;;;;;;15.38;8.07;;;;;;;;;;4988074;28;20038;-86
2022/01/27 12:13:35;;;;;;;17.00;9.13;;;;;;;;;;5012791;28;20049;-86
2022/01/27 12:18:42;;;;;;;16.08;8.80;;;;;;;;;;4995227;28;20547;-85
2022/01/27 12:21:27;;;;;;;17.13;8.73;;;;;;;;;;4994287;28;20069;-89
2022/01/27 12:24:15;;;;;;;13.88;7.90;;;;;;;;;;5010188;28;20410;-88
2022/01/27 12:26:48;;;;;;;15.10;7.63;;;;;;;;;;4993386;28;20031;-87
2022/01/27 12:29:26;;;;;;;14.50;7.05;;;;;;;;;;4993037;28;20093;-87
2022/01/27 12:31:54;;;;;;;15.10;7.25;;;;;;;;;;5014487;28;20053;-88
2022/01/27 12:34:20;;;;;;;15.80;7.18;;;;;;;;;;5011709;28;20431;-88
2022/01/27 12:37:12;;;;;;;14.80;6.65;;;;;;;;;;5013521;28;20038;-87
2022/01/27 12:39:43;;;;;;;13.43;5.78;;;;;;;;;;4991571;28;20089;-88
2022/01/27 12:42:13;;;;;;;12.10;5.57;;;;;;;;;;5025372;28;20022;-86
2022/01/27 12:44:41;;;;;;;13.63;6.30;;;;;;;;;;5001109;28;20022;-87
2022/01/27 12:47:10;;;;;;;12.80;6.15;;;;;;;;;;4998246;28;20095;-87
2022/01/27 12:49:47;;;;;;;11.73;5.80;;;;;;;;;;5022472;28;20045;-86
2022/01/27 12:52:16;;;;;;;12.82;6.75;;;;;;;;;;4996348;28;20062;-86
2022/01/27 12:54:42;;;;;;;;;;;;;;;;;;4991280;28;20030;-87
2022/01/27 12:57:09;;;;;;;14.23;6.30;;;;;;;;;;5012435;28;19925;-86
2022/01/27 12:59:37;;;;;;;11.57;6.53;;;;;;;;;;4992957;28;20033;-87
2022/01/27 13:02:04;;;;;;;16.55;7.72;;;;;;;;;;4994931;28;20037;-85
2022/01/27 13:04:31;;;;;;;13.65;7.55;;;;;;;;;;5024171;28;20026;-86
2022/01/27 13:06:57;;;;;;;16.27;7.65;;;;;;;;;;4993882;28;20388;-87
2022/01/27 13:09:25;;;;;;;17.48;9.30;;;;;;;;;;4991421;28;20031;-87
2022/01/27 13:11:53;;;;;;;15.93;8.45;;;;;;;;;;4992830;28;20042;-86
2022/01/27 13:14:19;;;;;;;16.58;7.93;;;;;;;;;;4992878;28;20081;-86
2022/01/27 13:16:51;;;;;;;17.35;8.25;;;;;;;;;;5010698;28;20023;-85
2022/01/27 13:19:32;;;;;;;17.05;8.43;;;;;;;;;;4993781;28;20435;-87
2022/01/27 13:22:02;;;;;;;19.35;8.82;;;;;;;;;;4989088;28;20042;-85
2022/01/27 13:24:31;;;;;;;18.92;9.55;;;;;;;;;;4991730;28;20029;-87
2022/01/27 13:27:12;;;;;;;20.08;10.00;;;;;;;;;;4992535;28;20254;-87
2022/01/27 13:29:42;;;;;;;19.35;9.73;;;;;;;;;;4993650;28;20030;-87
2022/01/27 13:32:08;;;;;;;15.95;8.65;;;;;;;;;;4994171;28;20030;-87
2022/01/27 13:34:34;;;;;;;17.98;9.38;;;;;;;;;;5014797;28;20168;-86
2022/01/27 13:37:02;;;;;;;19.52;9.88;;;;;;;;;;4992725;28;20054;-87
2022/01/27 13:41:16;;;;;;;15.77;8.82;;;;;;;;;;4995108;28;20553;-87
2022/01/27 13:42:22;;;;;;;16.58;8.10;;;;;;;;;;4992320;28;20033;-87
2022/01/27 13:44:56;;;;;;;17.67;8.30;;;;;;;;;;4981200;28;20038;-87
2022/01/27 13:47:25;;;;;;;16.85;8.45;;;;;;;;;;4999122;28;20029;-86
2022/01/27 13:49:52;;;;;;;15.50;7.90;;;;;;;;;;4987531;28;20057;-87
2022/01/27 13:52:18;;;;;;;17.80;7.82;;;;;;;;;;4987512;28;20026;-86
2022/01/27 13:54:46;;;;;;;15.25;8.38;;;;;;;;;;4987914;28;20034;-86
2022/01/27 13:57:15;;;;;;;14.77;7.75;;;;;;;;;;4992078;28;20027;-85
2022/01/27 13:59:53;;;;;;;16.23;7.28;;;;;;;;;;4990501;28;20034;-87
2022/01/27 14:02:24;;;;;;;15.07;7.43;;;;;;;;;;4991665;28;20026;-86
2022/01/27 14:04:51;;;;;;;14.68;7.85;;;;;;;;;;4993249;28;20706;-86
2022/01/27 14:07:30;;;;;;;15.93;8.18;;;;;;;;;;5015758;28;20056;-86
2022/01/27 14:10:19;;;;;;;41.83;28.20;;;;;;;;;;4989645;28;20030;-86
2022/01/27 14:12:46;;;;;;;38.75;23.23;;;;;;;;;;4993800;28;20042;-86
2022/01/27 14:15:27;;;;;;;44.25;26.98;;;;;;;;;;4993126;28;20037;-86
2022/01/27 14:17:57;;;;;;;33.28;19.77;;;;;;;;;;4985277;28;20615;-87
2022/01/27 14:20:23;;;;;;;18.70;10.48;;;;;;;;;;4990202;28;20038;-87
2022/01/27 14:23:02;;;;;;;12.82;6.90;;;;;;;;;;4993262;28;20026;-86
2022/01/27 14:25:30;;;;;;;;;;;;;;;;;;4995027;28;20033;-86
2022/01/27 14:27:56;;;;;;;16.15;7.97;;;;;;;;;;4986409;28;20410;-87
2022/01/27 14:30:22;;;;;;;22.52;13.63;;;;;;;;;;4980233;28;20039;-86
2022/01/27 14:32:49;;;;;;;15.13;8.90;;;;;;;;;;4981199;28;20511;-86
2022/01/27 14:35:15;;;;;;;17.63;8.88;;;;;;;;;;4992232;28;20038;-86
2022/01/27 14:37:42;;;;;;;15.23;7.72;;;;;;;;;;5020587;28;20026;-87
2022/01/27 14:40:11;;;;;;;18.33;9.48;;;;;;;;;;4975050;28;20121;-86
2022/01/27 14:42:37;;;;;;;18.95;8.70;;;;;;;;;;5007909;28;20022;-86
2022/01/27 14:45:05;;;;;;;13.40;6.75;;;;;;;;;;4990959;28;20039;-86
2022/01/27 14:47:32;;;;;;;13.63;6.97;;;;;;;;;;4990528;28;20026;-87
2022/01/27 14:49:58;;;;;;;17.48;9.32;;;;;;;;;;4994251;28;20486;-86
2022/01/27 14:52:28;;;;;;;18.00;9.57;;;;;;;;;;5008659;28;20026;-85
2022/01/27 14:54:55;;;;;;;18.00;10.32;;;;;;;;;;4990227;28;20027;-86
2022/01/27 14:57:21;;;;;;;20.40;10.52;;;;;;;;;;4991243;28;20117;-87
2022/01/27 14:59:47;;;;;;;20.10;11.02;;;;;;;;;;4992220;28;20048;-87
2022/01/27 15:02:13;;;;;;;15.15;7.70;;;;;;;;;;4989302;28;20122;-86
2022/01/27 15:04:39;;;;;;;17.15;8.82;;;;;;;;;;5012546;28;20578;-87
2022/01/27 15:07:05;;;;;;;16.90;8.82;;;;;;;;;;4988788;28;20049;-85
2022/01/27 15:09:31;;;;;;;17.20;9.52;;;;;;;;;;4979970;28;20066;-86
2022/01/27 15:11:57;;;;;;;18.13;9.77;;;;;;;;;;4981621;28;20050;-85
2022/01/27 15:19:53;;;;;;;19.58;9.32;;;;;;;;;;4978096;28;20058;-87
2022/01/27 15:22:20;;;;;;;18.33;8.98;;;;;;;;;;4991060;28;20042;-87
2022/01/27 15:24:46;;;;;;;17.33;8.50;;;;;;;;;;4992648;28;20122;-87
2022/01/27 15:27:12;;;;;;;16.58;7.82;;;;;;;;;;5009315;28;20475;-86
2022/01/27 15:29:40;;;;;;;15.48;8.15;;;;;;;;;;4987955;28;20045;-89
2022/01/27 15:32:08;;;;;;;14.73;8.27;;;;;;;;;;4990470;28;20395;-87
2022/01/27 15:34:35;;;;;;;16.23;8.47;;;;;;;;;;5019829;28;20077;-87